sensor_id;sensor_type;location;lat;lon;timestamp;P1;durP1;ratioP1;P2;durP2;ratioP2
54454;SDS011;40364;52.270;10.546;2022-12-28T00:01:09;7.50;;;1.70;;
54454;SDS011;40364;52.270;10.546;2022-12-28T00:03:37;7.10;;;1.90;;
54454;SDS011;40364;52.270;10.546;2022-12-28T00:06:04;7.85;;;2.10;;
54454;SDS011;40364;52.270;10.546;2022-12-28T00:08:31;6.70;;;1.83;;
54454;SDS011;40364;52.270;10.546;2022-12-28T00:10:59;7.30;;;2.40;;
54454;SDS011;40364;52.270;10.546;2022-12-28T00:13:28;9.18;;;2.65;;
54454;SDS011;40364;52.270;10.546;2022-12-28T00:15:57;8.75;;;2.25;;
54454;SDS011;40364;52.270;10.546;2022-12-28T00:18:23;10.45;;;2.10;;
54454;SDS011;40364;52.270;10.546;2022-12-28T00:20:59;3.08;;;1.83;;
54454;SDS011;40364;52.270;10.546;2022-12-28T00:23:26;7.03;;;2.22;;
54454;SDS011;40364;52.270;10.546;2022-12-28T00:25:53;5.95;;;1.90;;
54454;SDS011;40364;52.270;10.546;2022-12-28T00:28:20;5.35;;;2.00;;
54454;SDS011;40364;52.270;10.546;2022-12-28T00:30:47;3.92;;;1.80;;
54454;SDS011;40364;52.270;10.546;2022-12-28T00:33:15;7.85;;;1.95;;
54454;SDS011;40364;52.270;10.546;2022-12-28T00:35:41;5.05;;;1.70;;
54454;SDS011;40364;52.270;10.546;2022-12-28T00:38:08;2.20;;;1.58;;
54454;SDS011;40364;52.270;10.546;2022-12-28T00:40:35;6.60;;;2.13;;
54454;SDS011;40364;52.270;10.546;2022-12-28T00:43:01;6.45;;;1.70;;
54454;SDS011;40364;52.270;10.546;2022-12-28T00:45:28;7.05;;;2.00;;
54454;SDS011;40364;52.270;10.546;2022-12-28T00:47:54;6.40;;;1.83;;
54454;SDS011;40364;52.270;10.546;2022-12-28T00:50:22;2.92;;;1.45;;
54454;SDS011;40364;52.270;10.546;2022-12-28T00:52:49;11.25;;;1.70;;
54454;SDS011;40364;52.270;10.546;2022-12-28T00:55:16;5.20;;;1.58;;
54454;SDS011;40364;52.270;10.546;2022-12-28T00:57:42;9.48;;;1.55;;
54454;SDS011;40364;52.270;10.546;2022-12-28T01:00:10;9.02;;;1.73;;
54454;SDS011;40364;52.270;10.546;2022-12-28T01:02:37;4.60;;;1.08;;
54454;SDS011;40364;52.270;10.546;2022-12-28T01:05:05;4.82;;;1.50;;
54454;SDS011;40364;52.270;10.546;2022-12-28T01:07:33;3.28;;;1.52;;
54454;SDS011;40364;52.270;10.546;2022-12-28T01:10:00;2.42;;;1.40;;
54454;SDS011;40364;52.270;10.546;2022-12-28T01:12:27;10.32;;;2.58;;
54454;SDS011;40364;52.270;10.546;2022-12-28T01:14:54;2.28;;;1.25;;
54454;SDS011;40364;52.270;10.546;2022-12-28T01:17:20;10.40;;;1.77;;
54454;SDS011;40364;52.270;10.546;2022-12-28T01:19:47;4.78;;;1.75;;
54454;SDS011;40364;52.270;10.546;2022-12-28T01:22:13;9.35;;;1.60;;
54454;SDS011;40364;52.270;10.546;2022-12-28T01:24:41;5.25;;;1.23;;
54454;SDS011;40364;52.270;10.546;2022-12-28T01:27:09;6.03;;;1.30;;
54454;SDS011;40364;52.270;10.546;2022-12-28T01:29:35;3.75;;;1.38;;
54454;SDS011;40364;52.270;10.546;2022-12-28T01:32:02;5.00;;;1.70;;
54454;SDS011;40364;52.270;10.546;2022-12-28T01:34:29;6.45;;;1.35;;
54454;SDS011;40364;52.270;10.546;2022-12-28T01:36:56;7.60;;;1.40;;
54454;SDS011;40364;52.270;10.546;2022-12-28T01:39:23;7.05;;;1.60;;
54454;SDS011;40364;52.270;10.546;2022-12-28T01:41:51;9.10;;;1.88;;
54454;SDS011;40364;52.270;10.546;2022-12-28T01:44:38;5.78;;;1.40;;
54454;SDS011;40364;52.270;10.546;2022-12-28T01:47:09;5.35;;;1.40;;
54454;SDS011;40364;52.270;10.546;2022-12-28T01:49:41;4.60;;;1.75;;
54454;SDS011;40364;52.270;10.546;2022-12-28T01:52:12;5.53;;;1.55;;
54454;SDS011;40364;52.270;10.546;2022-12-28T01:54:42;4.13;;;1.25;;
54454;SDS011;40364;52.270;10.546;2022-12-28T01:57:15;7.70;;;2.03;;
54454;SDS011;40364;52.270;10.546;2022-12-28T01:59:45;7.57;;;1.55;;
54454;SDS011;40364;52.270;10.546;2022-12-28T02:02:16;2.47;;;1.60;;
54454;SDS011;40364;52.270;10.546;2022-12-28T02:04:42;5.65;;;1.60;;
54454;SDS011;40364;52.270;10.546;2022-12-28T02:07:12;4.18;;;1.55;;
54454;SDS011;40364;52.270;10.546;2022-12-28T02:09:44;3.00;;;1.45;;
54454;SDS011;40364;52.270;10.546;2022-12-28T02:12:12;10.27;;;2.03;;
54454;SDS011;40364;52.270;10.546;2022-12-28T02:14:42;5.75;;;1.75;;
54454;SDS011;40364;52.270;10.546;2022-12-28T02:17:10;6.05;;;1.52;;
54454;SDS011;40364;52.270;10.546;2022-12-28T02:19:39;5.82;;;1.55;;
54454;SDS011;40364;52.270;10.546;2022-12-28T02:22:19;3.83;;;1.60;;
54454;SDS011;40364;52.270;10.546;2022-12-28T02:25:14;10.05;;;1.80;;
54454;SDS011;40364;52.270;10.546;2022-12-28T02:27:59;6.60;;;1.48;;
54454;SDS011;40364;52.270;10.546;2022-12-28T02:30:36;4.05;;;1.48;;
54454;SDS011;40364;52.270;10.546;2022-12-28T02:33:10;3.55;;;1.40;;
54454;SDS011;40364;52.270;10.546;2022-12-28T02:35:44;4.07;;;1.52;;
54454;SDS011;40364;52.270;10.546;2022-12-28T02:38:15;3.92;;;2.05;;
54454;SDS011;40364;52.270;10.546;2022-12-28T02:40:47;7.93;;;2.10;;
54454;SDS011;40364;52.270;10.546;2022-12-28T02:43:18;5.40;;;2.58;;
54454;SDS011;40364;52.270;10.546;2022-12-28T02:45:47;5.47;;;1.55;;
54454;SDS011;40364;52.270;10.546;2022-12-28T02:48:38;6.15;;;2.10;;
54454;SDS011;40364;52.270;10.546;2022-12-28T02:51:28;7.78;;;1.70;;
54454;SDS011;40364;52.270;10.546;2022-12-28T02:54:25;6.00;;;1.80;;
54454;SDS011;40364;52.270;10.546;2022-12-28T02:57:25;3.67;;;1.50;;
54454;SDS011;40364;52.270;10.546;2022-12-28T03:00:03;5.13;;;2.00;;
54454;SDS011;40364;52.270;10.546;2022-12-28T03:02:37;8.82;;;2.13;;
54454;SDS011;40364;52.270;10.546;2022-12-28T03:05:16;12.18;;;1.98;;
54454;SDS011;40364;52.270;10.546;2022-12-28T03:08:09;4.00;;;2.40;;
54454;SDS011;40364;52.270;10.546;2022-12-28T03:10:45;5.50;;;1.63;;
54454;SDS011;40364;52.270;10.546;2022-12-28T03:13:18;3.25;;;1.63;;
54454;SDS011;40364;52.270;10.546;2022-12-28T03:16:08;3.85;;;1.73;;
54454;SDS011;40364;52.270;10.546;2022-12-28T03:18:39;4.80;;;1.70;;
54454;SDS011;40364;52.270;10.546;2022-12-28T03:21:27;5.88;;;2.00;;
54454;SDS011;40364;52.270;10.546;2022-12-28T03:24:13;3.80;;;1.63;;
54454;SDS011;40364;52.270;10.546;2022-12-28T03:27:01;2.90;;;1.63;;
54454;SDS011;40364;52.270;10.546;2022-12-28T03:29:51;4.03;;;2.10;;
54454;SDS011;40364;52.270;10.546;2022-12-28T03:32:39;6.65;;;1.67;;
54454;SDS011;40364;52.270;10.546;2022-12-28T03:35:07;7.85;;;2.08;;
54454;SDS011;40364;52.270;10.546;2022-12-28T03:37:35;4.53;;;2.20;;
54454;SDS011;40364;52.270;10.546;2022-12-28T03:40:08;7.22;;;2.13;;
54454;SDS011;40364;52.270;10.546;2022-12-28T03:42:37;6.97;;;2.47;;
54454;SDS011;40364;52.270;10.546;2022-12-28T03:45:27;3.38;;;1.50;;
54454;SDS011;40364;52.270;10.546;2022-12-28T03:47:59;4.20;;;1.80;;
54454;SDS011;40364;52.270;10.546;2022-12-28T03:50:29;6.78;;;2.00;;
54454;SDS011;40364;52.270;10.546;2022-12-28T03:53:00;6.95;;;2.00;;
54454;SDS011;40364;52.270;10.546;2022-12-28T03:55:26;6.05;;;2.25;;
54454;SDS011;40364;52.270;10.546;2022-12-28T03:57:54;7.50;;;2.00;;
54454;SDS011;40364;52.270;10.546;2022-12-28T04:00:21;7.85;;;2.45;;
54454;SDS011;40364;52.270;10.546;2022-12-28T04:02:47;4.57;;;2.10;;
54454;SDS011;40364;52.270;10.546;2022-12-28T04:05:14;5.30;;;1.83;;
54454;SDS011;40364;52.270;10.546;2022-12-28T04:07:42;5.97;;;2.35;;
54454;SDS011;40364;52.270;10.546;2022-12-28T04:10:10;7.63;;;2.42;;
54454;SDS011;40364;52.270;10.546;2022-12-28T04:12:37;8.50;;;2.03;;
54454;SDS011;40364;52.270;10.546;2022-12-28T04:15:04;3.95;;;2.33;;
54454;SDS011;40364;52.270;10.546;2022-12-28T04:17:32;3.55;;;1.98;;
54454;SDS011;40364;52.270;10.546;2022-12-28T04:19:58;4.57;;;2.10;;
54454;SDS011;40364;52.270;10.546;2022-12-28T04:22:25;3.95;;;1.90;;
54454;SDS011;40364;52.270;10.546;2022-12-28T04:24:53;4.70;;;2.17;;
54454;SDS011;40364;52.270;10.546;2022-12-28T04:27:20;4.53;;;1.92;;
54454;SDS011;40364;52.270;10.546;2022-12-28T04:29:48;9.20;;;2.83;;
54454;SDS011;40364;52.270;10.546;2022-12-28T04:32:15;8.27;;;3.05;;
54454;SDS011;40364;52.270;10.546;2022-12-28T04:34:41;3.65;;;2.10;;
54454;SDS011;40364;52.270;10.546;2022-12-28T04:37:08;5.13;;;2.58;;
54454;SDS011;40364;52.270;10.546;2022-12-28T04:39:34;8.30;;;2.55;;
54454;SDS011;40364;52.270;10.546;2022-12-28T04:42:02;6.22;;;2.22;;
54454;SDS011;40364;52.270;10.546;2022-12-28T04:44:29;8.20;;;2.00;;
54454;SDS011;40364;52.270;10.546;2022-12-28T04:46:56;6.82;;;2.08;;
54454;SDS011;40364;52.270;10.546;2022-12-28T04:49:23;6.10;;;2.05;;
54454;SDS011;40364;52.270;10.546;2022-12-28T04:51:49;4.93;;;2.20;;
54454;SDS011;40364;52.270;10.546;2022-12-28T04:54:16;6.30;;;2.30;;
54454;SDS011;40364;52.270;10.546;2022-12-28T04:56:42;5.35;;;2.47;;
54454;SDS011;40364;52.270;10.546;2022-12-28T04:59:10;7.97;;;2.25;;
54454;SDS011;40364;52.270;10.546;2022-12-28T05:01:37;2.17;;;1.75;;
54454;SDS011;40364;52.270;10.546;2022-12-28T05:04:04;3.75;;;1.70;;
54454;SDS011;40364;52.270;10.546;2022-12-28T05:06:31;2.75;;;1.88;;
54454;SDS011;40364;52.270;10.546;2022-12-28T05:08:57;5.60;;;1.80;;
54454;SDS011;40364;52.270;10.546;2022-12-28T05:11:25;4.70;;;2.20;;
54454;SDS011;40364;52.270;10.546;2022-12-28T05:13:53;4.55;;;1.98;;
54454;SDS011;40364;52.270;10.546;2022-12-28T05:16:22;7.63;;;2.13;;
54454;SDS011;40364;52.270;10.546;2022-12-28T05:18:50;4.85;;;2.00;;
54454;SDS011;40364;52.270;10.546;2022-12-28T05:21:17;9.25;;;2.42;;
54454;SDS011;40364;52.270;10.546;2022-12-28T05:23:45;5.80;;;2.17;;
54454;SDS011;40364;52.270;10.546;2022-12-28T05:26:13;7.03;;;2.45;;
54454;SDS011;40364;52.270;10.546;2022-12-28T05:28:42;5.45;;;2.28;;
54454;SDS011;40364;52.270;10.546;2022-12-28T05:31:09;5.85;;;2.03;;
54454;SDS011;40364;52.270;10.546;2022-12-28T05:33:39;5.38;;;2.35;;
54454;SDS011;40364;52.270;10.546;2022-12-28T05:36:06;3.80;;;2.15;;
54454;SDS011;40364;52.270;10.546;2022-12-28T05:38:35;4.63;;;1.98;;
54454;SDS011;40364;52.270;10.546;2022-12-28T05:41:04;8.52;;;2.38;;
54454;SDS011;40364;52.270;10.546;2022-12-28T05:43:32;4.07;;;2.00;;
54454;SDS011;40364;52.270;10.546;2022-12-28T05:46:00;5.22;;;2.22;;
54454;SDS011;40364;52.270;10.546;2022-12-28T05:48:29;2.50;;;1.70;;
54454;SDS011;40364;52.270;10.546;2022-12-28T05:50:58;4.47;;;1.83;;
54454;SDS011;40364;52.270;10.546;2022-12-28T05:53:27;6.18;;;2.10;;
54454;SDS011;40364;52.270;10.546;2022-12-28T05:55:58;3.95;;;1.75;;
54454;SDS011;40364;52.270;10.546;2022-12-28T05:58:26;5.00;;;1.73;;
54454;SDS011;40364;52.270;10.546;2022-12-28T06:00:52;8.50;;;2.10;;
54454;SDS011;40364;52.270;10.546;2022-12-28T06:03:19;7.43;;;2.88;;
54454;SDS011;40364;52.270;10.546;2022-12-28T06:05:46;4.13;;;2.00;;
54454;SDS011;40364;52.270;10.546;2022-12-28T06:08:14;8.88;;;2.47;;
54454;SDS011;40364;52.270;10.546;2022-12-28T06:10:40;4.70;;;2.13;;
54454;SDS011;40364;52.270;10.546;2022-12-28T06:13:07;9.00;;;2.28;;
54454;SDS011;40364;52.270;10.546;2022-12-28T06:15:34;5.13;;;2.33;;
54454;SDS011;40364;52.270;10.546;2022-12-28T06:18:01;3.28;;;1.90;;
54454;SDS011;40364;52.270;10.546;2022-12-28T06:20:28;3.97;;;1.92;;
54454;SDS011;40364;52.270;10.546;2022-12-28T06:22:54;5.63;;;2.50;;
54454;SDS011;40364;52.270;10.546;2022-12-28T06:25:22;4.43;;;2.03;;
54454;SDS011;40364;52.270;10.546;2022-12-28T06:27:49;6.40;;;2.53;;
54454;SDS011;40364;52.270;10.546;2022-12-28T06:30:15;6.43;;;3.22;;
54454;SDS011;40364;52.270;10.546;2022-12-28T06:32:42;4.07;;;2.75;;
54454;SDS011;40364;52.270;10.546;2022-12-28T06:35:09;6.00;;;2.75;;
54454;SDS011;40364;52.270;10.546;2022-12-28T06:37:36;6.10;;;2.72;;
54454;SDS011;40364;52.270;10.546;2022-12-28T06:40:03;11.35;;;2.75;;
54454;SDS011;40364;52.270;10.546;2022-12-28T06:42:31;5.05;;;2.70;;
54454;SDS011;40364;52.270;10.546;2022-12-28T06:44:58;7.85;;;2.88;;
54454;SDS011;40364;52.270;10.546;2022-12-28T06:47:24;7.50;;;3.10;;
54454;SDS011;40364;52.270;10.546;2022-12-28T06:49:51;6.88;;;2.80;;
54454;SDS011;40364;52.270;10.546;2022-12-28T06:52:18;6.50;;;2.58;;
54454;SDS011;40364;52.270;10.546;2022-12-28T06:54:45;5.55;;;3.13;;
54454;SDS011;40364;52.270;10.546;2022-12-28T06:57:12;8.18;;;2.58;;
54454;SDS011;40364;52.270;10.546;2022-12-28T06:59:40;5.30;;;2.90;;
54454;SDS011;40364;52.270;10.546;2022-12-28T07:02:07;4.05;;;2.80;;
54454;SDS011;40364;52.270;10.546;2022-12-28T07:04:34;5.97;;;2.92;;
54454;SDS011;40364;52.270;10.546;2022-12-28T07:07:01;7.72;;;3.40;;
54454;SDS011;40364;52.270;10.546;2022-12-28T07:09:27;13.43;;;3.45;;
54454;SDS011;40364;52.270;10.546;2022-12-28T07:11:54;8.02;;;4.15;;
54454;SDS011;40364;52.270;10.546;2022-12-28T07:14:20;8.30;;;3.17;;
54454;SDS011;40364;52.270;10.546;2022-12-28T07:16:48;13.05;;;3.78;;
54454;SDS011;40364;52.270;10.546;2022-12-28T07:19:15;4.93;;;3.25;;
54454;SDS011;40364;52.270;10.546;2022-12-28T07:21:42;6.80;;;3.78;;
54454;SDS011;40364;52.270;10.546;2022-12-28T07:24:09;9.55;;;3.45;;
54454;SDS011;40364;52.270;10.546;2022-12-28T07:26:36;7.22;;;4.05;;
54454;SDS011;40364;52.270;10.546;2022-12-28T07:29:04;8.65;;;4.18;;
54454;SDS011;40364;52.270;10.546;2022-12-28T07:31:32;9.20;;;4.05;;
54454;SDS011;40364;52.270;10.546;2022-12-28T07:34:02;9.00;;;4.30;;
54454;SDS011;40364;52.270;10.546;2022-12-28T07:36:29;5.95;;;3.72;;
54454;SDS011;40364;52.270;10.546;2022-12-28T07:38:57;12.25;;;4.25;;
54454;SDS011;40364;52.270;10.546;2022-12-28T07:41:25;7.25;;;4.18;;
54454;SDS011;40364;52.270;10.546;2022-12-28T07:43:53;9.50;;;4.80;;
54454;SDS011;40364;52.270;10.546;2022-12-28T07:46:21;10.85;;;4.53;;
54454;SDS011;40364;52.270;10.546;2022-12-28T07:48:49;7.22;;;4.25;;
54454;SDS011;40364;52.270;10.546;2022-12-28T07:51:18;9.05;;;4.07;;
54454;SDS011;40364;52.270;10.546;2022-12-28T07:53:47;10.05;;;4.72;;
54454;SDS011;40364;52.270;10.546;2022-12-28T07:56:15;6.35;;;3.25;;
54454;SDS011;40364;52.270;10.546;2022-12-28T07:58:46;7.50;;;3.42;;
54454;SDS011;40364;52.270;10.546;2022-12-28T08:01:13;7.85;;;3.72;;
54454;SDS011;40364;52.270;10.546;2022-12-28T08:03:41;6.40;;;3.60;;
54454;SDS011;40364;52.270;10.546;2022-12-28T08:06:08;6.28;;;3.55;;
54454;SDS011;40364;52.270;10.546;2022-12-28T08:08:39;7.10;;;3.33;;
54454;SDS011;40364;52.270;10.546;2022-12-28T08:11:08;7.53;;;3.90;;
54454;SDS011;40364;52.270;10.546;2022-12-28T08:13:37;6.03;;;3.42;;
54454;SDS011;40364;52.270;10.546;2022-12-28T08:16:05;6.32;;;3.08;;
54454;SDS011;40364;52.270;10.546;2022-12-28T08:18:33;5.43;;;3.00;;
54454;SDS011;40364;52.270;10.546;2022-12-28T08:21:00;6.45;;;2.95;;
54454;SDS011;40364;52.270;10.546;2022-12-28T08:23:28;4.60;;;3.03;;
54454;SDS011;40364;52.270;10.546;2022-12-28T08:25:56;5.97;;;2.85;;
54454;SDS011;40364;52.270;10.546;2022-12-28T08:28:29;5.07;;;2.70;;
54454;SDS011;40364;52.270;10.546;2022-12-28T08:30:56;6.43;;;2.70;;
54454;SDS011;40364;52.270;10.546;2022-12-28T08:33:22;7.22;;;2.90;;
54454;SDS011;40364;52.270;10.546;2022-12-28T08:35:49;4.70;;;2.78;;
54454;SDS011;40364;52.270;10.546;2022-12-28T08:38:16;4.60;;;2.53;;
54454;SDS011;40364;52.270;10.546;2022-12-28T08:40:42;7.90;;;3.35;;
54454;SDS011;40364;52.270;10.546;2022-12-28T08:43:10;7.15;;;3.00;;
54454;SDS011;40364;52.270;10.546;2022-12-28T08:45:37;4.47;;;2.70;;
54454;SDS011;40364;52.270;10.546;2022-12-28T08:48:04;4.50;;;3.08;;
54454;SDS011;40364;52.270;10.546;2022-12-28T08:50:31;7.57;;;2.83;;
54454;SDS011;40364;52.270;10.546;2022-12-28T08:52:58;5.63;;;2.92;;
54454;SDS011;40364;52.270;10.546;2022-12-28T08:55:24;5.97;;;3.10;;
54454;SDS011;40364;52.270;10.546;2022-12-28T08:57:51;4.43;;;2.90;;
54454;SDS011;40364;52.270;10.546;2022-12-28T09:00:19;7.82;;;3.00;;
54454;SDS011;40364;52.270;10.546;2022-12-28T09:02:46;6.95;;;3.38;;
54454;SDS011;40364;52.270;10.546;2022-12-28T09:05:13;4.65;;;2.90;;
54454;SDS011;40364;52.270;10.546;2022-12-28T09:07:40;4.05;;;2.28;;
54454;SDS011;40364;52.270;10.546;2022-12-28T09:10:07;5.30;;;2.90;;
54454;SDS011;40364;52.270;10.546;2022-12-28T09:12:34;6.15;;;2.33;;
54454;SDS011;40364;52.270;10.546;2022-12-28T09:15:00;4.88;;;2.83;;
54454;SDS011;40364;52.270;10.546;2022-12-28T09:17:28;5.15;;;2.38;;
54454;SDS011;40364;52.270;10.546;2022-12-28T09:19:57;4.85;;;2.53;;
54454;SDS011;40364;52.270;10.546;2022-12-28T09:22:24;5.10;;;2.50;;
54454;SDS011;40364;52.270;10.546;2022-12-28T09:24:51;3.88;;;2.47;;
54454;SDS011;40364;52.270;10.546;2022-12-28T09:27:18;5.03;;;2.33;;
54454;SDS011;40364;52.270;10.546;2022-12-28T09:29:44;4.13;;;1.95;;
54454;SDS011;40364;52.270;10.546;2022-12-28T09:32:11;5.78;;;3.08;;
54454;SDS011;40364;52.270;10.546;2022-12-28T09:34:39;2.75;;;2.40;;
54454;SDS011;40364;52.270;10.546;2022-12-28T09:37:06;3.97;;;2.00;;
54454;SDS011;40364;52.270;10.546;2022-12-28T09:39:33;4.35;;;2.17;;
54454;SDS011;40364;52.270;10.546;2022-12-28T09:42:01;3.33;;;2.03;;
54454;SDS011;40364;52.270;10.546;2022-12-28T09:44:32;5.05;;;2.30;;
54454;SDS011;40364;52.270;10.546;2022-12-28T09:47:09;3.00;;;2.08;;
54454;SDS011;40364;52.270;10.546;2022-12-28T09:49:45;6.28;;;3.35;;
54454;SDS011;40364;52.270;10.546;2022-12-28T09:52:24;6.93;;;2.17;;
54454;SDS011;40364;52.270;10.546;2022-12-28T09:54:53;4.43;;;2.53;;
54454;SDS011;40364;52.270;10.546;2022-12-28T09:57:22;3.63;;;2.50;;
54454;SDS011;40364;52.270;10.546;2022-12-28T09:59:49;4.18;;;2.10;;
54454;SDS011;40364;52.270;10.546;2022-12-28T10:02:19;5.78;;;2.47;;
54454;SDS011;40364;52.270;10.546;2022-12-28T10:04:54;5.85;;;2.72;;
54454;SDS011;40364;52.270;10.546;2022-12-28T10:07:21;5.85;;;2.25;;
54454;SDS011;40364;52.270;10.546;2022-12-28T10:09:48;4.32;;;2.83;;
54454;SDS011;40364;52.270;10.546;2022-12-28T10:12:16;5.03;;;2.20;;
54454;SDS011;40364;52.270;10.546;2022-12-28T10:14:46;7.07;;;2.67;;
54454;SDS011;40364;52.270;10.546;2022-12-28T10:17:14;6.28;;;2.30;;
54454;SDS011;40364;52.270;10.546;2022-12-28T10:19:43;3.30;;;2.47;;
54454;SDS011;40364;52.270;10.546;2022-12-28T10:22:13;4.18;;;2.42;;
54454;SDS011;40364;52.270;10.546;2022-12-28T10:24:43;4.57;;;2.13;;
54454;SDS011;40364;52.270;10.546;2022-12-28T10:27:11;4.63;;;2.70;;
54454;SDS011;40364;52.270;10.546;2022-12-28T10:29:44;4.10;;;2.30;;
54454;SDS011;40364;52.270;10.546;2022-12-28T10:32:11;3.80;;;2.45;;
54454;SDS011;40364;52.270;10.546;2022-12-28T10:34:46;3.47;;;2.33;;
54454;SDS011;40364;52.270;10.546;2022-12-28T10:37:21;3.75;;;2.25;;
54454;SDS011;40364;52.270;10.546;2022-12-28T10:39:50;5.80;;;2.05;;
54454;SDS011;40364;52.270;10.546;2022-12-28T10:42:22;3.88;;;2.20;;
54454;SDS011;40364;52.270;10.546;2022-12-28T10:44:51;3.05;;;1.80;;
54454;SDS011;40364;52.270;10.546;2022-12-28T10:47:23;2.97;;;1.77;;
54454;SDS011;40364;52.270;10.546;2022-12-28T10:49:55;6.28;;;2.35;;
54454;SDS011;40364;52.270;10.546;2022-12-28T10:52:23;3.40;;;2.05;;
54454;SDS011;40364;52.270;10.546;2022-12-28T10:54:52;3.75;;;2.10;;
54454;SDS011;40364;52.270;10.546;2022-12-28T10:57:19;6.03;;;2.50;;
54454;SDS011;40364;52.270;10.546;2022-12-28T11:00:02;5.72;;;2.00;;
54454;SDS011;40364;52.270;10.546;2022-12-28T11:02:40;3.92;;;2.00;;
54454;SDS011;40364;52.270;10.546;2022-12-28T11:05:16;4.35;;;2.03;;
54454;SDS011;40364;52.270;10.546;2022-12-28T11:07:46;4.13;;;2.20;;
54454;SDS011;40364;52.270;10.546;2022-12-28T11:10:14;3.50;;;1.92;;
54454;SDS011;40364;52.270;10.546;2022-12-28T11:12:47;3.47;;;1.77;;
54454;SDS011;40364;52.270;10.546;2022-12-28T11:15:16;5.22;;;1.98;;
54454;SDS011;40364;52.270;10.546;2022-12-28T11:18:10;4.07;;;1.90;;
54454;SDS011;40364;52.270;10.546;2022-12-28T11:20:41;3.53;;;2.00;;
54454;SDS011;40364;52.270;10.546;2022-12-28T11:23:13;2.85;;;1.73;;
54454;SDS011;40364;52.270;10.546;2022-12-28T11:25:43;3.47;;;1.90;;
54454;SDS011;40364;52.270;10.546;2022-12-28T11:28:11;3.40;;;1.70;;
54454;SDS011;40364;52.270;10.546;2022-12-28T11:30:41;5.68;;;2.60;;
54454;SDS011;40364;52.270;10.546;2022-12-28T11:33:20;2.40;;;1.60;;
54454;SDS011;40364;52.270;10.546;2022-12-28T11:35:51;3.25;;;1.85;;
54454;SDS011;40364;52.270;10.546;2022-12-28T11:38:37;3.88;;;1.60;;
54454;SDS011;40364;52.270;10.546;2022-12-28T11:41:05;4.93;;;1.58;;
54454;SDS011;40364;52.270;10.546;2022-12-28T11:43:55;4.13;;;1.70;;
54454;SDS011;40364;52.270;10.546;2022-12-28T11:46:36;3.35;;;1.58;;
54454;SDS011;40364;52.270;10.546;2022-12-28T11:49:26;3.47;;;1.38;;
54454;SDS011;40364;52.270;10.546;2022-12-28T11:55:01;2.25;;;1.60;;
54454;SDS011;40364;52.270;10.546;2022-12-28T11:57:50;4.18;;;1.60;;
54454;SDS011;40364;52.270;10.546;2022-12-28T12:03:13;2.92;;;1.45;;
54454;SDS011;40364;52.270;10.546;2022-12-28T12:08:37;3.80;;;1.42;;
54454;SDS011;40364;52.270;10.546;2022-12-28T12:11:28;3.50;;;1.80;;
54454;SDS011;40364;52.270;10.546;2022-12-28T12:13:58;3.60;;;2.28;;
54454;SDS011;40364;52.270;10.546;2022-12-28T12:16:28;3.17;;;1.88;;
54454;SDS011;40364;52.270;10.546;2022-12-28T12:19:01;2.75;;;1.60;;
54454;SDS011;40364;52.270;10.546;2022-12-28T12:21:34;5.18;;;1.70;;
54454;SDS011;40364;52.270;10.546;2022-12-28T12:24:14;4.95;;;1.90;;
54454;SDS011;40364;52.270;10.546;2022-12-28T12:26:52;3.60;;;1.90;;
54454;SDS011;40364;52.270;10.546;2022-12-28T12:29:25;5.05;;;1.98;;
54454;SDS011;40364;52.270;10.546;2022-12-28T12:32:02;3.58;;;1.70;;
54454;SDS011;40364;52.270;10.546;2022-12-28T12:34:37;4.50;;;2.33;;
54454;SDS011;40364;52.270;10.546;2022-12-28T12:37:15;4.68;;;2.05;;
54454;SDS011;40364;52.270;10.546;2022-12-28T12:40:06;3.97;;;2.00;;
54454;SDS011;40364;52.270;10.546;2022-12-28T12:42:57;7.72;;;2.20;;
54454;SDS011;40364;52.270;10.546;2022-12-28T12:48:19;9.73;;;2.35;;
54454;SDS011;40364;52.270;10.546;2022-12-28T12:51:01;2.85;;;1.92;;
54454;SDS011;40364;52.270;10.546;2022-12-28T12:53:42;4.90;;;1.98;;
54454;SDS011;40364;52.270;10.546;2022-12-28T12:56:27;3.47;;;2.20;;
54454;SDS011;40364;52.270;10.546;2022-12-28T12:59:11;5.82;;;2.10;;
54454;SDS011;40364;52.270;10.546;2022-12-28T13:01:51;5.85;;;2.35;;
54454;SDS011;40364;52.270;10.546;2022-12-28T13:04:23;7.25;;;2.25;;
54454;SDS011;40364;52.270;10.546;2022-12-28T13:06:54;2.67;;;2.00;;
54454;SDS011;40364;52.270;10.546;2022-12-28T13:09:24;5.07;;;2.42;;
54454;SDS011;40364;52.270;10.546;2022-12-28T13:11:54;5.90;;;2.42;;
54454;SDS011;40364;52.270;10.546;2022-12-28T13:14:23;2.85;;;1.75;;
54454;SDS011;40364;52.270;10.546;2022-12-28T13:16:50;2.42;;;1.90;;
54454;SDS011;40364;52.270;10.546;2022-12-28T13:19:20;6.30;;;2.00;;
54454;SDS011;40364;52.270;10.546;2022-12-28T13:21:48;2.85;;;1.75;;
54454;SDS011;40364;52.270;10.546;2022-12-28T13:24:21;3.65;;;1.90;;
54454;SDS011;40364;52.270;10.546;2022-12-28T13:26:50;4.97;;;1.83;;
54454;SDS011;40364;52.270;10.546;2022-12-28T13:29:17;3.22;;;2.28;;
54454;SDS011;40364;52.270;10.546;2022-12-28T13:31:47;9.38;;;2.22;;
54454;SDS011;40364;52.270;10.546;2022-12-28T13:34:15;7.97;;;2.25;;
54454;SDS011;40364;52.270;10.546;2022-12-28T13:36:47;6.43;;;1.98;;
54454;SDS011;40364;52.270;10.546;2022-12-28T13:39:16;3.42;;;1.98;;
54454;SDS011;40364;52.270;10.546;2022-12-28T13:41:46;2.58;;;1.67;;
54454;SDS011;40364;52.270;10.546;2022-12-28T13:47:01;4.22;;;2.45;;
54454;SDS011;40364;52.270;10.546;2022-12-28T13:49:33;6.45;;;1.92;;
54454;SDS011;40364;52.270;10.546;2022-12-28T13:52:05;11.13;;;2.20;;
54454;SDS011;40364;52.270;10.546;2022-12-28T13:54:35;5.22;;;1.90;;
54454;SDS011;40364;52.270;10.546;2022-12-28T13:57:03;3.97;;;2.08;;
54454;SDS011;40364;52.270;10.546;2022-12-28T13:59:32;5.57;;;1.73;;
54454;SDS011;40364;52.270;10.546;2022-12-28T14:02:02;3.47;;;1.83;;
54454;SDS011;40364;52.270;10.546;2022-12-28T14:04:29;3.53;;;1.40;;
54454;SDS011;40364;52.270;10.546;2022-12-28T14:06:57;2.88;;;1.50;;
54454;SDS011;40364;52.270;10.546;2022-12-28T14:09:24;4.57;;;1.67;;
54454;SDS011;40364;52.270;10.546;2022-12-28T14:11:51;2.90;;;1.55;;
54454;SDS011;40364;52.270;10.546;2022-12-28T14:14:18;5.30;;;1.48;;
54454;SDS011;40364;52.270;10.546;2022-12-28T14:16:46;4.88;;;1.60;;
54454;SDS011;40364;52.270;10.546;2022-12-28T14:19:14;3.60;;;1.50;;
54454;SDS011;40364;52.270;10.546;2022-12-28T14:21:41;6.10;;;1.80;;
54454;SDS011;40364;52.270;10.546;2022-12-28T14:24:10;3.40;;;1.75;;
54454;SDS011;40364;52.270;10.546;2022-12-28T14:26:39;3.80;;;1.50;;
54454;SDS011;40364;52.270;10.546;2022-12-28T14:29:12;6.38;;;1.70;;
54454;SDS011;40364;52.270;10.546;2022-12-28T14:31:44;5.53;;;1.63;;
54454;SDS011;40364;52.270;10.546;2022-12-28T14:34:20;4.95;;;1.77;;
54454;SDS011;40364;52.270;10.546;2022-12-28T14:36:50;4.20;;;1.98;;
54454;SDS011;40364;52.270;10.546;2022-12-28T14:39:23;3.95;;;1.88;;
54454;SDS011;40364;52.270;10.546;2022-12-28T14:41:53;4.35;;;1.70;;
54454;SDS011;40364;52.270;10.546;2022-12-28T14:44:24;4.43;;;2.05;;
54454;SDS011;40364;52.270;10.546;2022-12-28T14:46:53;6.45;;;1.77;;
54454;SDS011;40364;52.270;10.546;2022-12-28T14:49:31;4.35;;;1.95;;
54454;SDS011;40364;52.270;10.546;2022-12-28T14:58:01;4.43;;;2.10;;
54454;SDS011;40364;52.270;10.546;2022-12-28T15:00:35;4.07;;;1.83;;
54454;SDS011;40364;52.270;10.546;2022-12-28T15:03:12;7.75;;;1.85;;
54454;SDS011;40364;52.270;10.546;2022-12-28T15:05:44;4.40;;;2.05;;
54454;SDS011;40364;52.270;10.546;2022-12-28T15:08:13;6.18;;;2.55;;
54454;SDS011;40364;52.270;10.546;2022-12-28T15:10:41;6.07;;;2.10;;
54454;SDS011;40364;52.270;10.546;2022-12-28T15:13:13;5.20;;;2.08;;